createdAt,value
2022-09-06T05:31:28.556Z,24.52
2022-09-06T05:32:28.624Z,24.63
2022-09-06T05:33:32.773Z,24.62
2022-09-06T05:34:31.780Z,24.58
2022-09-06T05:35:32.475Z,24.55
2022-09-06T05:36:36.812Z,24.39
2022-09-06T05:37:34.056Z,24.36
2022-09-06T05:38:38.380Z,24.36
2022-09-06T05:39:38.247Z,24.27
2022-09-06T05:40:38.330Z,24.27
2022-09-06T05:41:41.277Z,24.17
2022-09-06T05:42:41.679Z,24.07
2022-09-06T05:43:44.834Z,24.03
2022-09-06T05:44:47.957Z,23.95
2022-09-06T05:52:08.194Z,23.95
2022-09-06T05:53:11.021Z,23.96
2022-09-06T05:54:13.857Z,23.91
2022-09-06T05:55:16.691Z,23.91
2022-09-06T05:56:19.533Z,23.83
2022-09-06T05:57:22.381Z,23.71
2022-09-06T05:58:25.402Z,23.62
2022-09-06T05:59:28.536Z,23.57
2022-09-06T06:00:31.339Z,23.52
2022-09-06T06:01:34.271Z,23.5
2022-09-06T06:02:37.495Z,23.45
2022-09-06T06:03:40.856Z,23.41
2022-09-06T06:04:43.664Z,23.39
2022-09-06T06:05:46.615Z,23.33
2022-09-06T06:06:49.512Z,23.28
2022-09-06T06:07:52.392Z,23.19
2022-09-06T06:08:55.249Z,23.17
2022-09-06T06:09:58.141Z,23.16
2022-09-06T06:11:00.969Z,23.06
2022-09-06T06:12:03.768Z,23.04
2022-09-06T06:13:06.599Z,23
2022-09-06T06:14:09.403Z,22.98
2022-09-06T06:15:12.241Z,22.82
2022-09-06T06:16:15.192Z,22.81
2022-09-06T06:17:18.430Z,22.81
2022-09-06T06:18:21.312Z,22.77
2022-09-06T06:19:24.694Z,22.73
2022-09-06T06:20:27.515Z,22.72
2022-09-06T06:21:30.637Z,22.74
2022-09-06T06:22:33.471Z,22.75
2022-09-06T06:23:36.272Z,22.75
2022-09-06T06:24:39.107Z,22.75
2022-09-06T06:25:41.950Z,22.76
2022-09-06T06:26:44.778Z,22.79
2022-09-06T06:27:47.621Z,22.82
2022-09-06T06:28:50.536Z,22.82
2022-09-06T06:29:50.607Z,22.89
2022-09-06T06:30:51.352Z,23.01
2022-09-06T06:31:54.272Z,23.12
2022-09-06T06:32:55.000Z,23.28
2022-09-06T06:33:57.855Z,23.41
2022-09-06T06:35:00.670Z,23.49
2022-09-06T06:36:03.486Z,23.57
2022-09-06T06:37:06.326Z,23.6
2022-09-06T06:38:09.164Z,23.66
2022-09-06T06:39:11.975Z,23.7
2022-09-06T06:40:14.873Z,23.65
2022-09-06T06:41:17.704Z,23.63
2022-09-06T06:42:20.563Z,23.53
2022-09-06T06:43:23.350Z,23.48
2022-09-06T06:44:26.193Z,23.45
2022-09-06T06:45:29.071Z,23.3
2022-09-06T06:46:32.251Z,23.24
2022-09-06T06:47:35.049Z,23.21
2022-09-06T06:48:37.922Z,23.12
2022-09-06T06:49:40.731Z,23.08
2022-09-06T06:50:43.567Z,23.04
2022-09-06T06:51:46.409Z,23
2022-09-06T06:52:49.204Z,23.01
2022-09-06T06:53:52.004Z,22.99
2022-09-06T06:54:54.816Z,22.97
2022-09-06T06:55:57.599Z,23.04
2022-09-06T06:57:00.417Z,23.15
2022-09-06T06:58:03.338Z,23.28
2022-09-06T06:59:06.147Z,23.36
2022-09-06T07:00:08.982Z,23.46
2022-09-06T07:01:12.269Z,23.53
2022-09-06T07:02:13.386Z,23.55
2022-09-06T07:03:13.447Z,23.65
2022-09-06T07:04:16.303Z,23.78
2022-09-06T14:57:22.994Z,33.46
2022-09-06T15:02:23.204Z,33.17
2022-09-06T15:03:26.403Z,33.16
2022-09-06T15:04:29.848Z,33.18
2022-09-06T15:06:02.942Z,33.07
2022-09-06T15:06:37.298Z,33.11
2022-09-06T15:07:33.513Z,33.11
2022-09-06T15:08:36.348Z,33.12
2022-09-06T15:09:39.403Z,32.86
2022-09-06T15:10:42.358Z,32.87
2022-09-06T15:11:45.419Z,32.83
2022-09-06T15:12:48.385Z,32.65
2022-09-06T15:13:51.231Z,32.69
2022-09-06T15:14:54.089Z,32.66
2022-09-06T15:15:57.081Z,32.67
2022-09-06T15:16:58.886Z,32.65
2022-09-06T15:17:59.804Z,32.64
2022-09-06T15:19:02.976Z,32.63
2022-09-06T15:20:09.247Z,32.62
2022-09-06T15:21:07.522Z,32.59
2022-09-06T15:22:16.081Z,32.54
2022-09-06T15:23:24.624Z,32.53
2022-09-06T15:24:14.942Z,32.55
2022-09-06T15:25:18.174Z,32.6
2022-09-06T15:26:21.142Z,32.59
2022-09-06T15:27:24.155Z,32.64
2022-09-06T15:28:24.731Z,32.67
2022-09-06T15:29:28.294Z,32.65
2022-09-06T15:30:33.630Z,32.55
2022-09-06T15:31:31.101Z,32.54
2022-09-06T15:32:34.328Z,32.54
2022-09-06T15:33:35.858Z,32.62
2022-09-06T15:34:41.623Z,32.71
2022-09-06T15:35:43.006Z,32.77
2022-09-06T15:36:40.952Z,32.84
2022-09-06T15:37:43.269Z,32.85
2022-09-06T15:38:48.155Z,32.87
2022-09-06T15:43:02.133Z,32.95
2022-09-06T15:44:01.573Z,32.91
2022-09-06T15:44:57.025Z,32.87
2022-09-06T15:46:00.790Z,32.84
2022-09-06T15:47:03.673Z,32.83
2022-09-06T15:48:06.057Z,32.85
2022-09-06T15:49:05.471Z,32.82
2022-09-06T15:50:08.741Z,32.81
2022-09-06T15:51:10.278Z,32.71
2022-09-06T15:52:10.558Z,32.67
2022-09-06T15:53:15.863Z,32.64
2022-09-06T15:54:16.632Z,32.61
2022-09-06T15:55:16.919Z,32.6
2022-09-06T15:56:16.782Z,32.57
2022-09-06T15:57:28.797Z,32.56
2022-09-06T15:58:31.630Z,32.53
2022-09-06T15:59:24.688Z,32.5
2022-09-06T16:00:27.719Z,32.5
2022-09-06T16:01:30.579Z,32.5
2022-09-06T16:02:32.076Z,32.46
2022-09-06T16:03:37.569Z,32.45
2022-09-06T16:04:37.619Z,32.45
2022-09-06T16:06:39.992Z,32.43
2022-09-06T16:07:44.110Z,32.4
2022-09-06T16:08:43.658Z,32.35
2022-09-06T16:09:46.986Z,32.32
2022-09-06T16:10:51.261Z,32.23
2022-09-06T16:11:51.239Z,32.19
2022-09-06T16:13:03.343Z,32.14
2022-09-06T16:13:55.218Z,32.17
2022-09-06T16:14:55.607Z,32.16
2022-09-06T16:15:56.704Z,32.15
2022-09-06T16:17:02.075Z,32.13
2022-09-06T16:18:02.677Z,32.05
2022-09-06T16:19:04.051Z,32.01
2022-09-06T16:20:16.513Z,32.03
2022-09-06T16:21:10.921Z,32.04
2022-09-06T16:22:14.008Z,32.05
2022-09-06T16:23:15.203Z,32.09
2022-09-06T16:24:24.282Z,32.11
2022-09-06T16:25:18.573Z,32.16
2022-09-06T16:26:22.062Z,32.2
2022-09-06T16:27:23.124Z,32.2
2022-09-06T16:28:22.667Z,32.22
2022-09-06T16:29:26.981Z,32.22
2022-09-06T16:30:24.242Z,32.27
2022-09-06T16:31:26.378Z,32.29
2022-09-06T16:32:28.130Z,32.3
2022-09-06T16:33:29.569Z,32.32
2022-09-06T16:34:32.344Z,32.29
2022-09-06T16:35:33.441Z,32.35
2022-09-06T16:36:39.626Z,32.4
2022-09-06T16:37:37.025Z,32.35
2022-09-06T16:38:37.193Z,32.25
2022-09-06T16:39:41.109Z,32.16
2022-09-06T16:40:40.920Z,32.09
2022-09-06T16:41:41.717Z,32.03
2022-09-06T16:42:44.809Z,31.8
2022-09-06T16:43:47.818Z,31.67
2022-09-06T16:44:50.603Z,31.6
2022-09-06T16:45:54.622Z,31.68
2022-09-06T16:46:58.061Z,31.64
2022-09-06T16:47:55.214Z,31.52
2022-09-06T16:48:55.967Z,31.41
2022-09-06T16:49:59.100Z,31.2
2022-09-06T16:51:02.506Z,31.2
2022-09-06T16:52:05.559Z,31.1
2022-09-06T16:53:05.848Z,30.98
2022-09-06T16:54:08.758Z,30.91
2022-09-06T16:55:11.889Z,31.02
2022-09-06T16:56:14.801Z,31.1
2022-09-06T16:57:17.838Z,31.22
2022-09-06T16:58:20.702Z,31.29
2022-09-06T16:59:23.655Z,31.34
2022-09-06T17:00:26.628Z,31.34
2022-09-06T17:01:29.802Z,31.32
2022-09-06T17:02:30.077Z,31.04
2022-09-06T17:03:30.025Z,30.87
2022-09-06T17:04:33.144Z,30.76
2022-09-06T17:05:36.134Z,30.62
2022-09-06T17:06:39.147Z,30.49
2022-09-06T17:07:42.349Z,30.4
2022-09-06T17:08:43.176Z,30.45
2022-09-06T17:09:43.546Z,30.52
2022-09-06T17:10:44.258Z,30.62
2022-09-06T17:11:45.646Z,30.76
2022-09-06T17:12:49.094Z,30.88
2022-09-06T17:13:49.191Z,30.97
2022-09-06T17:14:49.268Z,31.06
2022-09-06T17:15:49.446Z,31.1
2022-09-06T17:16:52.560Z,31.13
2022-09-06T17:17:52.654Z,31.14
2022-09-06T17:18:55.619Z,31.12
2022-09-06T17:19:58.554Z,31.11
2022-09-06T17:21:01.410Z,31.08
2022-09-06T17:22:04.352Z,31.04
2022-09-06T17:23:07.656Z,31.03
2022-09-06T17:24:10.807Z,30.93
2022-09-06T17:25:13.750Z,30.92
2022-09-06T17:26:14.282Z,30.89
2022-09-06T17:27:15.540Z,30.88
2022-09-06T17:28:16.516Z,30.91
2022-09-06T17:29:20.509Z,31
2022-09-06T17:30:20.512Z,31.06
2022-09-06T17:31:25.764Z,31.22
2022-09-06T17:32:26.599Z,31.34
2022-09-06T17:33:26.585Z,31.26
2022-09-06T17:34:26.843Z,31.18
2022-09-06T17:35:30.065Z,30.9
2022-09-06T17:36:30.508Z,30.81
2022-09-06T17:37:29.852Z,30.8
2022-09-06T17:38:32.266Z,30.76
2022-09-06T17:39:32.209Z,30.76
2022-09-06T17:40:32.267Z,30.63
2022-09-06T17:41:35.599Z,30.54
2022-09-06T17:42:36.655Z,30.41
2022-09-06T17:43:37.152Z,30.3
2022-09-06T17:44:40.243Z,30.19
2022-09-06T17:45:40.808Z,30.19
2022-09-06T17:46:52.224Z,30.16
2022-09-06T17:47:42.096Z,30.03
2022-09-06T17:48:42.862Z,30.04
2022-09-06T17:49:44.231Z,30.11
2022-09-06T17:50:47.377Z,30.01
2022-09-06T17:51:47.223Z,29.99
2022-09-06T17:52:50.342Z,29.93
2022-09-06T17:53:53.576Z,29.83
2022-09-06T17:54:54.068Z,29.74
2022-09-06T17:55:55.124Z,29.71
2022-09-06T17:56:55.611Z,29.7
2022-09-06T17:57:56.938Z,29.68
2022-09-06T17:58:56.426Z,29.73
2022-09-06T17:59:59.519Z,29.78
2022-09-06T18:01:02.642Z,29.84
2022-09-06T18:02:05.855Z,29.82
2022-09-06T18:03:09.294Z,29.8
2022-09-06T18:04:11.190Z,29.78
2022-09-06T18:05:13.138Z,29.73
2022-09-06T18:06:14.211Z,29.59
2022-09-06T18:07:15.102Z,29.47
2022-09-06T18:08:17.108Z,29.33
2022-09-06T18:09:18.734Z,29.19
2022-09-06T18:10:20.647Z,29.04
2022-09-06T18:11:20.645Z,28.96
2022-09-06T18:12:22.513Z,28.84
2022-09-06T18:13:23.176Z,28.77
2022-09-06T18:14:23.477Z,28.76
2022-09-06T18:15:23.911Z,28.76
2022-09-06T18:16:27.148Z,28.81
2022-09-06T18:17:27.305Z,28.84
2022-09-06T18:18:30.374Z,28.88
2022-09-06T18:19:33.481Z,28.84
2022-09-06T18:20:36.109Z,28.85
2022-09-06T18:21:36.338Z,28.87
2022-09-06T18:22:36.516Z,28.79
2022-09-06T18:23:36.813Z,28.69
2022-09-06T18:24:39.920Z,28.61
2022-09-06T18:25:43.333Z,28.55
2022-09-06T18:26:46.484Z,28.61
2022-09-06T18:27:46.778Z,28.69
2022-09-06T18:28:47.141Z,28.62
2022-09-06T18:29:49.990Z,28.58
2022-09-06T18:30:53.248Z,28.52
2022-09-06T18:31:53.594Z,28.5
2022-09-06T18:32:53.659Z,28.46
2022-09-06T18:33:54.061Z,28.46
2022-09-06T18:34:54.312Z,28.4
2022-09-06T18:35:56.870Z,28.43
2022-09-06T18:36:55.773Z,28.46
2022-09-06T18:38:04.189Z,28.41
2022-09-06T18:39:00.884Z,28.36
2022-09-06T18:40:06.689Z,28.33
2022-09-06T18:41:06.888Z,28.28
2022-09-06T18:42:07.126Z,28.26
2022-09-06T18:43:10.296Z,28.23
2022-09-06T18:44:13.488Z,28.22
2022-09-06T18:45:13.494Z,28.26
2022-09-06T18:46:16.892Z,28.3
2022-09-06T18:47:17.205Z,28.3
2022-09-06T18:48:20.160Z,28.34
2022-09-06T18:49:23.572Z,28.37
2022-09-06T18:50:26.498Z,28.39
2022-09-06T18:51:29.505Z,28.41
2022-09-06T18:52:32.617Z,28.47
2022-09-06T18:53:35.510Z,28.49
2022-09-06T18:54:38.656Z,28.48
2022-09-06T18:55:41.564Z,28.51
2022-09-06T18:56:44.468Z,28.5
2022-09-06T18:57:47.607Z,28.47
2022-09-06T18:58:47.675Z,28.42
2022-09-06T18:59:50.926Z,28.38
2022-09-06T19:00:54.270Z,28.31
2022-09-06T19:01:57.892Z,28.27
2022-09-06T19:02:58.183Z,28.25
2022-09-06T19:04:01.217Z,28.25
2022-09-06T19:05:01.267Z,28.26
2022-09-06T19:06:04.377Z,28.22
2022-09-06T19:07:07.382Z,28.15
2022-09-06T19:08:10.703Z,28.08
2022-09-06T19:09:13.654Z,28.08
2022-09-06T19:10:16.851Z,27.97
2022-09-06T19:11:19.726Z,27.95
2022-09-06T19:12:22.565Z,27.91
2022-09-06T19:13:25.687Z,27.86
2022-09-06T19:14:28.672Z,27.84
2022-09-06T19:15:31.602Z,27.84
2022-09-06T19:16:34.714Z,27.84
2022-09-06T19:17:34.634Z,27.79
2022-09-06T19:18:37.578Z,27.72
2022-09-06T19:19:40.696Z,27.66
2022-09-06T19:20:43.570Z,27.62
2022-09-06T19:21:46.509Z,27.63
2022-09-06T19:22:49.349Z,27.6
2022-09-06T19:23:52.230Z,27.62
2022-09-06T19:24:55.053Z,27.65
2022-09-06T19:25:57.945Z,27.69
2022-09-06T19:27:00.840Z,27.71
2022-09-06T19:28:03.686Z,27.7
2022-09-06T19:29:06.523Z,27.66
2022-09-06T19:30:09.497Z,27.65
2022-09-06T19:31:12.373Z,27.63
2022-09-06T19:32:15.499Z,27.71
2022-09-06T19:33:18.345Z,27.82
2022-09-06T19:34:21.222Z,27.92
2022-09-06T19:35:24.102Z,28.02
2022-09-06T19:36:26.998Z,28.08
2022-09-06T19:37:29.933Z,28.15
2022-09-06T19:38:47.265Z,28.22
2022-09-06T19:39:36.962Z,28.23
2022-09-06T19:40:33.114Z,28.28
2022-09-06T19:41:36.454Z,28.34
2022-09-06T19:42:39.604Z,28.36
2022-09-06T19:43:42.739Z,28.36
2022-09-06T19:44:46.209Z,28.34
2022-09-06T19:45:46.246Z,28.3
2022-09-06T19:46:46.568Z,28.27
2022-09-06T19:47:47.273Z,28.26
2022-09-06T19:48:50.217Z,28.2
2022-09-06T19:49:53.260Z,28.14
2022-09-06T19:50:56.346Z,28.07
2022-09-06T19:51:59.325Z,28
2022-09-06T19:53:06.660Z,27.93
2022-09-06T19:54:03.475Z,27.86
2022-09-06T19:55:06.545Z,27.79
2022-09-06T19:56:11.601Z,27.76
2022-09-06T19:57:10.995Z,27.67
2022-09-06T19:58:13.831Z,27.62
2022-09-06T19:59:16.767Z,27.6
2022-09-06T20:00:19.698Z,27.55
2022-09-06T20:01:22.733Z,27.5
2022-09-06T20:02:26.200Z,27.51
2022-09-06T20:03:29.338Z,27.5
2022-09-06T20:04:32.207Z,27.44
2022-09-06T20:05:35.043Z,27.4
2022-09-06T20:06:37.966Z,27.38
2022-09-06T20:07:40.909Z,27.38
2022-09-06T20:08:43.917Z,27.33
2022-09-06T20:09:50.637Z,27.28
2022-09-06T20:10:48.734Z,27.3
2022-09-06T20:11:51.765Z,27.31
2022-09-06T20:12:54.729Z,27.25
2022-09-06T20:13:57.666Z,27.23
2022-09-06T20:15:00.637Z,27.17
2022-09-06T20:16:03.877Z,27.1
2022-09-06T20:17:29.480Z,27.02
2022-09-06T20:18:09.024Z,26.98
2022-09-06T20:19:07.232Z,26.93
2022-09-06T20:20:07.419Z,26.86
2022-09-06T20:21:10.182Z,26.82
2022-09-06T20:22:08.923Z,26.72
2022-09-06T20:23:12.161Z,26.7
2022-09-06T20:24:16.162Z,26.71
2022-09-06T20:25:15.251Z,26.7
2022-09-06T20:26:15.679Z,26.77
2022-09-06T20:27:15.795Z,26.84
2022-09-06T20:28:18.653Z,26.82
2022-09-06T20:29:21.635Z,26.83
2022-09-06T20:30:24.680Z,26.83
2022-09-06T20:31:28.036Z,26.75
2022-09-06T20:32:29.085Z,26.72
2022-09-06T20:33:32.513Z,26.7
2022-09-06T20:34:46.105Z,26.7
2022-09-06T20:35:37.525Z,26.73
2022-09-06T20:37:00.182Z,26.75
2022-09-06T20:37:41.986Z,26.78
2022-09-06T20:38:42.041Z,26.81
2022-09-06T20:39:44.999Z,26.92
2022-09-06T20:40:45.614Z,26.96
2022-09-06T20:41:46.461Z,27
2022-09-06T20:42:49.459Z,27.03
2022-09-06T20:43:52.899Z,27.08
2022-09-06T20:44:56.317Z,27.07
2022-09-06T20:45:58.201Z,27.07
2022-09-06T20:47:00.534Z,27.05
2022-09-06T20:48:01.387Z,27.06
2022-09-06T20:49:05.166Z,27.07
2022-09-06T20:50:05.542Z,26.99
2022-09-06T20:51:07.631Z,26.93
2022-09-06T20:52:07.881Z,26.84
2022-09-06T20:53:10.729Z,26.8
2022-09-06T20:54:10.472Z,26.84
2022-09-06T20:55:13.895Z,26.81
2022-09-06T20:56:15.062Z,26.79
2022-09-06T20:57:15.017Z,26.83
2022-09-06T20:58:15.443Z,26.91
2022-09-06T20:59:15.306Z,26.95
2022-09-06T21:00:18.114Z,26.97
2022-09-06T21:01:21.380Z,27.01
2022-09-06T21:02:22.126Z,26.99
2022-09-06T21:03:22.534Z,26.98
2022-09-06T21:04:25.517Z,26.97
2022-09-06T21:05:28.562Z,26.97
2022-09-06T21:06:31.613Z,26.94
2022-09-06T21:07:34.967Z,26.93
2022-09-06T21:08:38.389Z,26.85
2022-09-06T21:09:35.972Z,26.74
2022-09-06T21:10:38.970Z,26.7
2022-09-06T21:11:41.869Z,26.68
2022-09-06T21:12:44.745Z,26.62
2022-09-06T21:13:47.746Z,26.48
2022-09-06T21:14:50.905Z,26.39
2022-09-06T21:15:53.897Z,26.35
2022-09-06T21:16:57.094Z,26.27
2022-09-06T21:18:00.173Z,26.14
2022-09-06T21:19:03.173Z,26.12
2022-09-06T21:20:06.064Z,26.11
2022-09-06T21:21:08.940Z,26.08
2022-09-06T21:22:11.820Z,26.05
2022-09-06T21:23:14.790Z,26.05
2022-09-06T21:24:15.450Z,26.06
2022-09-06T21:25:18.519Z,26.02
2022-09-06T21:26:21.583Z,26
2022-09-06T21:27:24.477Z,25.92
2022-09-06T21:28:27.393Z,25.91
2022-09-06T21:29:30.526Z,25.91
2022-09-06T21:30:33.362Z,25.91
2022-09-06T21:31:39.664Z,25.9
2022-09-06T21:32:38.984Z,25.9
2022-09-06T21:33:41.984Z,25.83
2022-09-06T21:34:45.152Z,25.82
2022-09-06T21:35:45.020Z,25.77
2022-09-06T21:36:48.429Z,25.79
2022-09-06T21:37:49.899Z,25.79
2022-09-06T21:38:50.696Z,25.79
2022-09-06T21:39:50.731Z,25.8
2022-09-06T21:40:52.256Z,25.77
2022-09-06T21:41:55.126Z,25.74
2022-09-06T21:43:03.891Z,25.76
2022-09-06T21:43:59.859Z,25.78
2022-09-06T21:45:03.024Z,25.79
2022-09-06T21:46:06.031Z,25.77
2022-09-06T21:47:09.400Z,25.78
2022-09-06T21:48:06.111Z,25.8
2022-09-06T21:49:09.160Z,25.82
2022-09-06T21:50:12.269Z,25.85
2022-09-06T21:51:15.203Z,25.87
2022-09-06T21:52:18.050Z,25.9
2022-09-06T21:53:20.995Z,25.9
2022-09-06T21:54:23.826Z,25.91
2022-09-06T21:55:26.649Z,25.9
2022-09-06T21:56:29.478Z,25.9
2022-09-06T21:57:32.299Z,25.84
2022-09-06T21:58:35.121Z,25.81
2022-09-06T21:59:37.958Z,25.77
2022-09-06T22:00:40.822Z,25.76
2022-09-06T22:01:45.291Z,25.76
2022-09-06T22:02:44.994Z,25.76
2022-09-06T22:03:47.967Z,25.69
2022-09-06T22:04:50.810Z,25.71
2022-09-06T22:05:53.665Z,25.72
2022-09-06T22:06:56.509Z,25.75
2022-09-06T22:07:59.356Z,25.74
2022-09-06T22:09:02.154Z,25.74
2022-09-06T22:10:04.966Z,25.77
2022-09-06T22:11:07.798Z,25.74
2022-09-06T22:12:10.745Z,25.76
2022-09-06T22:13:13.556Z,25.78
2022-09-06T22:14:16.411Z,25.78
2022-09-06T22:15:19.265Z,25.82
2022-09-06T22:16:22.144Z,25.78
2022-09-06T22:17:25.532Z,25.8
2022-09-06T22:18:28.408Z,25.82
2022-09-06T22:19:31.705Z,25.84
2022-09-06T22:20:34.504Z,25.86
2022-09-06T22:21:37.337Z,25.86
2022-09-06T22:22:40.157Z,25.84
2022-09-06T22:23:43.189Z,25.81
2022-09-06T22:24:46.026Z,25.8
2022-09-06T22:25:48.853Z,25.79
2022-09-06T22:26:51.699Z,25.75
2022-09-06T22:27:54.570Z,25.71
2022-09-06T22:28:57.564Z,25.66
2022-09-06T22:30:00.400Z,25.61
2022-09-06T22:31:03.370Z,25.6
2022-09-06T22:32:06.520Z,25.6
2022-09-06T22:33:09.338Z,25.52
2022-09-06T22:34:12.176Z,25.51
2022-09-06T22:35:14.969Z,25.49
2022-09-06T22:36:17.899Z,25.46
2022-09-06T22:37:20.769Z,25.47
2022-09-06T22:38:23.728Z,25.47
2022-09-06T22:39:26.873Z,25.48
2022-09-06T22:40:29.903Z,25.47
2022-09-06T22:41:32.738Z,25.38
2022-09-06T22:42:35.589Z,25.34
2022-09-06T22:43:38.406Z,25.35
2022-09-06T22:44:41.245Z,25.34
2022-09-06T22:45:45.741Z,25.33
2022-09-06T22:46:44.704Z,25.34
2022-09-06T22:47:48.069Z,25.33
2022-09-06T22:48:50.978Z,25.33
2022-09-06T22:49:53.846Z,25.33
2022-09-06T22:50:56.665Z,25.31
2022-09-06T22:51:59.477Z,25.24
2022-09-06T22:53:02.328Z,25.19
2022-09-06T22:54:05.151Z,25.14
2022-09-06T22:55:07.974Z,25.15
2022-09-06T22:56:10.799Z,25.18
2022-09-06T22:57:13.643Z,25.16
2022-09-06T22:58:16.533Z,25.14
2022-09-06T22:59:19.409Z,25.14
2022-09-06T23:00:22.239Z,25.1
2022-09-06T23:01:25.087Z,25.04
2022-09-06T23:02:28.214Z,25.02
2022-09-06T23:03:31.093Z,24.92
2022-09-06T23:04:34.219Z,24.87
2022-09-06T23:05:37.346Z,24.82
2022-09-06T23:06:40.171Z,24.81
2022-09-06T23:07:42.999Z,24.79
2022-09-06T23:08:45.825Z,24.83
2022-09-06T23:09:48.649Z,24.82
2022-09-06T23:10:51.508Z,24.84
2022-09-06T23:11:54.403Z,24.88
2022-09-06T23:12:57.355Z,24.97
2022-09-06T23:14:00.204Z,25.02
2022-09-06T23:15:03.050Z,25.08
2022-09-06T23:16:05.974Z,25.13
2022-09-06T23:17:08.406Z,25.19
2022-09-06T23:18:11.242Z,25.27
2022-09-06T23:19:14.105Z,25.35
2022-09-06T23:20:16.933Z,25.39
2022-09-06T23:21:19.781Z,25.39
2022-09-06T23:22:22.623Z,25.39
2022-09-06T23:23:25.455Z,25.37
2022-09-06T23:24:28.299Z,25.33
2022-09-06T23:25:31.131Z,25.31
2022-09-06T23:26:33.973Z,25.26
2022-09-06T23:27:36.853Z,25.21
2022-09-06T23:28:39.660Z,25.16
2022-09-06T23:29:42.528Z,25.14
2022-09-06T23:30:45.340Z,25.08
2022-09-06T23:31:48.244Z,25
2022-09-06T23:32:51.467Z,24.92
2022-09-06T23:33:54.284Z,24.85
2022-09-06T23:34:57.103Z,24.83
2022-09-06T23:35:59.934Z,24.8
2022-09-06T23:37:02.752Z,24.76
2022-09-06T23:38:05.574Z,24.77
2022-09-06T23:39:08.422Z,24.74
2022-09-06T23:40:11.308Z,24.73
2022-09-06T23:41:11.297Z,24.76
2022-09-06T23:42:14.464Z,24.78
2022-09-06T23:43:17.288Z,24.79
2022-09-06T23:44:20.131Z,24.8
2022-09-06T23:45:22.965Z,24.8
2022-09-06T23:46:25.798Z,24.83
2022-09-06T23:47:29.029Z,24.84
2022-09-06T23:48:32.005Z,24.83
2022-09-06T23:49:31.913Z,24.84
2022-09-06T23:50:34.731Z,24.84
2022-09-06T23:51:37.550Z,24.8
2022-09-06T23:52:40.369Z,24.78
2022-09-06T23:53:43.189Z,24.77
2022-09-06T23:54:46.038Z,24.71
2022-09-06T23:55:49.057Z,24.68
2022-09-06T23:56:51.874Z,24.66
2022-09-06T23:57:54.689Z,24.66
2022-09-06T23:58:57.509Z,24.62
